sensor_id;sensor_type;location;lat;lon;timestamp;P1;durP1;ratioP1;P2;durP2;ratioP2
51578;SDS011;47998;53.242;6.386;2023-06-04T00:01:20;6.45;;;3.90;;
51578;SDS011;47998;53.242;6.386;2023-06-04T00:03:47;11.25;;;4.95;;
51578;SDS011;47998;53.242;6.386;2023-06-04T00:06:12;10.35;;;4.57;;
51578;SDS011;47998;53.242;6.386;2023-06-04T00:08:38;13.38;;;4.43;;
51578;SDS011;47998;53.242;6.386;2023-06-04T00:11:04;11.60;;;4.68;;
51578;SDS011;47998;53.242;6.386;2023-06-04T00:13:30;15.95;;;5.05;;
51578;SDS011;47998;53.242;6.386;2023-06-04T00:15:56;16.05;;;5.93;;
51578;SDS011;47998;53.242;6.386;2023-06-04T00:18:21;13.05;;;5.47;;
51578;SDS011;47998;53.242;6.386;2023-06-04T00:20:47;14.27;;;5.32;;
51578;SDS011;47998;53.242;6.386;2023-06-04T00:23:13;19.88;;;6.20;;
51578;SDS011;47998;53.242;6.386;2023-06-04T00:25:38;16.05;;;6.07;;
51578;SDS011;47998;53.242;6.386;2023-06-04T00:28:04;15.20;;;5.25;;
51578;SDS011;47998;53.242;6.386;2023-06-04T00:30:31;19.08;;;5.68;;
51578;SDS011;47998;53.242;6.386;2023-06-04T00:32:56;11.63;;;5.90;;
51578;SDS011;47998;53.242;6.386;2023-06-04T00:35:22;15.48;;;6.72;;
51578;SDS011;47998;53.242;6.386;2023-06-04T00:37:47;16.13;;;6.55;;
51578;SDS011;47998;53.242;6.386;2023-06-04T00:40:13;17.00;;;5.85;;
51578;SDS011;47998;53.242;6.386;2023-06-04T00:42:39;14.57;;;5.70;;
51578;SDS011;47998;53.242;6.386;2023-06-04T00:45:05;16.92;;;5.82;;
51578;SDS011;47998;53.242;6.386;2023-06-04T00:47:32;17.65;;;6.78;;
51578;SDS011;47998;53.242;6.386;2023-06-04T00:49:58;15.00;;;7.28;;
51578;SDS011;47998;53.242;6.386;2023-06-04T00:52:25;13.45;;;6.05;;
51578;SDS011;47998;53.242;6.386;2023-06-04T00:54:51;18.23;;;6.35;;
51578;SDS011;47998;53.242;6.386;2023-06-04T00:57:19;17.27;;;6.22;;
51578;SDS011;47998;53.242;6.386;2023-06-04T00:59:46;18.55;;;6.78;;
51578;SDS011;47998;53.242;6.386;2023-06-04T01:02:13;12.55;;;5.70;;
51578;SDS011;47998;53.242;6.386;2023-06-04T01:07:36;19.88;;;7.32;;
51578;SDS011;47998;53.242;6.386;2023-06-04T01:10:05;14.15;;;6.53;;
51578;SDS011;47998;53.242;6.386;2023-06-04T01:12:32;24.80;;;8.00;;
51578;SDS011;47998;53.242;6.386;2023-06-04T01:14:57;15.05;;;6.32;;
51578;SDS011;47998;53.242;6.386;2023-06-04T01:17:31;17.58;;;6.25;;
51578;SDS011;47998;53.242;6.386;2023-06-04T01:20:06;15.38;;;6.38;;
51578;SDS011;47998;53.242;6.386;2023-06-04T01:25:10;19.40;;;5.60;;
51578;SDS011;47998;53.242;6.386;2023-06-04T01:27:49;15.23;;;6.00;;
51578;SDS011;47998;53.242;6.386;2023-06-04T01:30:18;13.85;;;5.10;;
51578;SDS011;47998;53.242;6.386;2023-06-04T01:32:55;13.95;;;5.60;;
51578;SDS011;47998;53.242;6.386;2023-06-04T01:35:21;13.48;;;5.07;;
51578;SDS011;47998;53.242;6.386;2023-06-04T01:37:48;10.82;;;4.40;;
51578;SDS011;47998;53.242;6.386;2023-06-04T01:40:14;15.23;;;4.95;;
51578;SDS011;47998;53.242;6.386;2023-06-04T01:42:41;13.95;;;6.38;;
51578;SDS011;47998;53.242;6.386;2023-06-04T01:45:07;13.00;;;5.30;;
51578;SDS011;47998;53.242;6.386;2023-06-04T01:47:33;13.57;;;5.82;;
51578;SDS011;47998;53.242;6.386;2023-06-04T01:50:00;15.95;;;5.53;;
51578;SDS011;47998;53.242;6.386;2023-06-04T01:52:26;19.75;;;5.63;;
51578;SDS011;47998;53.242;6.386;2023-06-04T01:54:52;13.75;;;5.72;;
51578;SDS011;47998;53.242;6.386;2023-06-04T01:57:18;15.25;;;4.68;;
51578;SDS011;47998;53.242;6.386;2023-06-04T01:59:47;11.15;;;4.40;;
51578;SDS011;47998;53.242;6.386;2023-06-04T02:02:13;14.15;;;5.47;;
51578;SDS011;47998;53.242;6.386;2023-06-04T02:04:40;24.88;;;3.70;;
51578;SDS011;47998;53.242;6.386;2023-06-04T02:07:10;106.40;;;4.75;;
51578;SDS011;47998;53.242;6.386;2023-06-04T02:09:38;9.27;;;2.03;;
51578;SDS011;47998;53.242;6.386;2023-06-04T02:12:04;24.17;;;2.70;;
51578;SDS011;47998;53.242;6.386;2023-06-04T02:14:30;5.25;;;1.80;;
51578;SDS011;47998;53.242;6.386;2023-06-04T02:16:55;8.90;;;2.55;;
51578;SDS011;47998;53.242;6.386;2023-06-04T02:19:26;13.90;;;2.15;;
51578;SDS011;47998;53.242;6.386;2023-06-04T02:21:52;19.40;;;1.90;;
51578;SDS011;47998;53.242;6.386;2023-06-04T02:24:19;2.90;;;1.20;;
51578;SDS011;47998;53.242;6.386;2023-06-04T02:26:45;45.03;;;3.03;;
51578;SDS011;47998;53.242;6.386;2023-06-04T02:29:11;61.60;;;3.05;;
51578;SDS011;47998;53.242;6.386;2023-06-04T02:31:37;6.90;;;1.60;;
51578;SDS011;47998;53.242;6.386;2023-06-04T02:34:03;2.35;;;0.90;;
51578;SDS011;47998;53.242;6.386;2023-06-04T02:36:29;21.58;;;1.92;;
51578;SDS011;47998;53.242;6.386;2023-06-04T02:38:55;69.93;;;3.42;;
51578;SDS011;47998;53.242;6.386;2023-06-04T02:41:21;34.97;;;3.60;;
51578;SDS011;47998;53.242;6.386;2023-06-04T02:43:48;5.50;;;2.40;;
51578;SDS011;47998;53.242;6.386;2023-06-04T02:46:13;4.30;;;1.95;;
51578;SDS011;47998;53.242;6.386;2023-06-04T02:48:39;4.25;;;2.03;;
51578;SDS011;47998;53.242;6.386;2023-06-04T02:51:05;2.92;;;1.70;;
51578;SDS011;47998;53.242;6.386;2023-06-04T02:53:35;5.35;;;2.95;;
51578;SDS011;47998;53.242;6.386;2023-06-04T02:56:01;4.70;;;3.10;;
51578;SDS011;47998;53.242;6.386;2023-06-04T02:58:26;7.00;;;3.25;;
51578;SDS011;47998;53.242;6.386;2023-06-04T03:00:54;9.13;;;3.43;;
51578;SDS011;47998;53.242;6.386;2023-06-04T03:03:20;3.63;;;2.25;;
51578;SDS011;47998;53.242;6.386;2023-06-04T03:05:45;6.87;;;2.33;;
51578;SDS011;47998;53.242;6.386;2023-06-04T03:08:11;5.70;;;3.17;;
51578;SDS011;47998;53.242;6.386;2023-06-04T03:10:37;23.55;;;4.30;;
51578;SDS011;47998;53.242;6.386;2023-06-04T03:13:03;71.68;;;5.47;;
51578;SDS011;47998;53.242;6.386;2023-06-04T03:15:29;121.10;;;8.00;;
51578;SDS011;47998;53.242;6.386;2023-06-04T03:17:55;22.83;;;5.30;;
51578;SDS011;47998;53.242;6.386;2023-06-04T03:20:22;8.73;;;3.50;;
51578;SDS011;47998;53.242;6.386;2023-06-04T03:22:49;18.85;;;4.13;;
51578;SDS011;47998;53.242;6.386;2023-06-04T03:25:16;161.20;;;8.07;;
51578;SDS011;47998;53.242;6.386;2023-06-04T03:27:41;153.03;;;8.20;;
51578;SDS011;47998;53.242;6.386;2023-06-04T03:30:07;4.47;;;3.13;;
51578;SDS011;47998;53.242;6.386;2023-06-04T03:32:34;3.53;;;2.60;;
51578;SDS011;47998;53.242;6.386;2023-06-04T03:35:00;27.83;;;4.03;;
51578;SDS011;47998;53.242;6.386;2023-06-04T03:37:27;56.83;;;5.10;;
51578;SDS011;47998;53.242;6.386;2023-06-04T03:39:53;149.30;;;7.97;;
51578;SDS011;47998;53.242;6.386;2023-06-04T03:42:19;97.90;;;5.63;;
51578;SDS011;47998;53.242;6.386;2023-06-04T03:44:45;178.50;;;9.27;;
51578;SDS011;47998;53.242;6.386;2023-06-04T03:47:11;199.67;;;11.20;;
51578;SDS011;47998;53.242;6.386;2023-06-04T03:49:37;224.13;;;10.27;;
51578;SDS011;47998;53.242;6.386;2023-06-04T03:52:02;236.33;;;10.67;;
51578;SDS011;47998;53.242;6.386;2023-06-04T03:54:28;45.97;;;5.63;;
51578;SDS011;47998;53.242;6.386;2023-06-04T03:56:54;218.70;;;9.65;;
51578;SDS011;47998;53.242;6.386;2023-06-04T03:59:20;159.87;;;9.10;;
51578;SDS011;47998;53.242;6.386;2023-06-04T04:01:46;116.37;;;6.83;;
51578;SDS011;47998;53.242;6.386;2023-06-04T04:04:11;180.23;;;8.87;;
51578;SDS011;47998;53.242;6.386;2023-06-04T04:06:37;39.07;;;5.60;;
51578;SDS011;47998;53.242;6.386;2023-06-04T04:09:03;140.40;;;8.13;;
51578;SDS011;47998;53.242;6.386;2023-06-04T04:11:31;159.25;;;9.18;;
51578;SDS011;47998;53.242;6.386;2023-06-04T04:13:57;129.38;;;8.13;;
51578;SDS011;47998;53.242;6.386;2023-06-04T04:16:23;49.83;;;6.28;;
51578;SDS011;47998;53.242;6.386;2023-06-04T04:18:49;133.80;;;9.80;;
51578;SDS011;47998;53.242;6.386;2023-06-04T04:21:15;145.57;;;9.13;;
51578;SDS011;47998;53.242;6.386;2023-06-04T04:23:41;18.10;;;6.28;;
51578;SDS011;47998;53.242;6.386;2023-06-04T04:26:10;15.60;;;6.40;;
51578;SDS011;47998;53.242;6.386;2023-06-04T04:28:35;8.93;;;5.50;;
51578;SDS011;47998;53.242;6.386;2023-06-04T04:31:02;11.40;;;5.97;;
51578;SDS011;47998;53.242;6.386;2023-06-04T04:33:28;11.43;;;6.93;;
51578;SDS011;47998;53.242;6.386;2023-06-04T04:36:00;15.18;;;7.68;;
51578;SDS011;47998;53.242;6.386;2023-06-04T04:38:26;20.92;;;8.55;;
51578;SDS011;47998;53.242;6.386;2023-06-04T04:40:53;13.90;;;8.15;;
51578;SDS011;47998;53.242;6.386;2023-06-04T04:43:33;17.27;;;8.07;;
51578;SDS011;47998;53.242;6.386;2023-06-04T04:46:04;15.85;;;9.50;;
51578;SDS011;47998;53.242;6.386;2023-06-04T04:48:32;21.05;;;9.85;;
51578;SDS011;47998;53.242;6.386;2023-06-04T04:50:58;20.60;;;10.45;;
51578;SDS011;47998;53.242;6.386;2023-06-04T04:53:25;24.58;;;12.32;;
51578;SDS011;47998;53.242;6.386;2023-06-04T04:55:52;23.08;;;12.88;;
51578;SDS011;47998;53.242;6.386;2023-06-04T04:58:17;30.70;;;15.98;;
51578;SDS011;47998;53.242;6.386;2023-06-04T05:00:43;33.70;;;17.52;;
51578;SDS011;47998;53.242;6.386;2023-06-04T05:03:09;40.05;;;18.30;;
51578;SDS011;47998;53.242;6.386;2023-06-04T05:05:35;39.38;;;18.60;;
51578;SDS011;47998;53.242;6.386;2023-06-04T05:08:01;33.15;;;18.95;;
51578;SDS011;47998;53.242;6.386;2023-06-04T05:10:26;39.10;;;18.77;;
51578;SDS011;47998;53.242;6.386;2023-06-04T05:12:53;31.83;;;17.17;;
51578;SDS011;47998;53.242;6.386;2023-06-04T05:15:23;36.28;;;17.40;;
51578;SDS011;47998;53.242;6.386;2023-06-04T05:17:51;30.65;;;16.27;;
51578;SDS011;47998;53.242;6.386;2023-06-04T05:20:18;25.70;;;13.35;;
51578;SDS011;47998;53.242;6.386;2023-06-04T05:22:46;23.67;;;12.93;;
51578;SDS011;47998;53.242;6.386;2023-06-04T05:25:11;30.05;;;13.35;;
51578;SDS011;47998;53.242;6.386;2023-06-04T05:27:39;24.85;;;11.63;;
51578;SDS011;47998;53.242;6.386;2023-06-04T05:30:05;17.40;;;9.93;;
51578;SDS011;47998;53.242;6.386;2023-06-04T05:32:32;20.60;;;9.18;;
51578;SDS011;47998;53.242;6.386;2023-06-04T05:34:58;23.30;;;8.02;;
51578;SDS011;47998;53.242;6.386;2023-06-04T05:37:24;14.40;;;6.75;;
51578;SDS011;47998;53.242;6.386;2023-06-04T05:39:55;16.65;;;6.53;;
51578;SDS011;47998;53.242;6.386;2023-06-04T05:42:22;13.20;;;5.55;;
51578;SDS011;47998;53.242;6.386;2023-06-04T05:44:48;13.05;;;4.70;;
51578;SDS011;47998;53.242;6.386;2023-06-04T05:47:15;13.02;;;4.07;;
51578;SDS011;47998;53.242;6.386;2023-06-04T05:49:44;15.15;;;4.65;;
51578;SDS011;47998;53.242;6.386;2023-06-04T05:52:10;12.45;;;3.67;;
51578;SDS011;47998;53.242;6.386;2023-06-04T05:54:36;9.45;;;3.70;;
51578;SDS011;47998;53.242;6.386;2023-06-04T05:57:04;11.02;;;4.28;;
51578;SDS011;47998;53.242;6.386;2023-06-04T05:59:31;8.57;;;2.90;;
51578;SDS011;47998;53.242;6.386;2023-06-04T06:01:57;13.05;;;3.85;;
51578;SDS011;47998;53.242;6.386;2023-06-04T06:04:23;12.75;;;4.03;;
51578;SDS011;47998;53.242;6.386;2023-06-04T06:06:49;14.45;;;3.30;;
51578;SDS011;47998;53.242;6.386;2023-06-04T06:09:15;12.57;;;2.80;;
51578;SDS011;47998;53.242;6.386;2023-06-04T06:11:41;9.13;;;2.55;;
51578;SDS011;47998;53.242;6.386;2023-06-04T06:14:07;10.23;;;2.90;;
51578;SDS011;47998;53.242;6.386;2023-06-04T06:16:33;14.02;;;2.90;;
51578;SDS011;47998;53.242;6.386;2023-06-04T06:18:59;11.52;;;2.70;;
51578;SDS011;47998;53.242;6.386;2023-06-04T06:21:26;8.43;;;2.53;;
51578;SDS011;47998;53.242;6.386;2023-06-04T06:23:53;10.07;;;3.45;;
51578;SDS011;47998;53.242;6.386;2023-06-04T06:26:19;7.25;;;3.15;;
51578;SDS011;47998;53.242;6.386;2023-06-04T06:28:45;7.43;;;2.50;;
51578;SDS011;47998;53.242;6.386;2023-06-04T06:31:10;8.95;;;2.67;;
51578;SDS011;47998;53.242;6.386;2023-06-04T06:33:36;10.23;;;3.30;;
51578;SDS011;47998;53.242;6.386;2023-06-04T06:36:10;14.95;;;3.00;;
51578;SDS011;47998;53.242;6.386;2023-06-04T06:38:39;10.88;;;2.50;;
51578;SDS011;47998;53.242;6.386;2023-06-04T06:41:05;11.05;;;2.60;;
51578;SDS011;47998;53.242;6.386;2023-06-04T06:43:31;9.60;;;2.88;;
51578;SDS011;47998;53.242;6.386;2023-06-04T06:45:58;6.32;;;2.22;;
51578;SDS011;47998;53.242;6.386;2023-06-04T06:48:24;7.90;;;2.20;;
51578;SDS011;47998;53.242;6.386;2023-06-04T06:50:49;8.85;;;2.45;;
51578;SDS011;47998;53.242;6.386;2023-06-04T06:53:15;7.45;;;2.10;;
51578;SDS011;47998;53.242;6.386;2023-06-04T06:55:41;7.30;;;2.05;;
51578;SDS011;47998;53.242;6.386;2023-06-04T06:58:07;8.10;;;2.70;;
51578;SDS011;47998;53.242;6.386;2023-06-04T07:00:32;9.40;;;2.20;;
51578;SDS011;47998;53.242;6.386;2023-06-04T07:02:58;5.00;;;1.83;;
51578;SDS011;47998;53.242;6.386;2023-06-04T07:05:24;7.85;;;2.75;;
51578;SDS011;47998;53.242;6.386;2023-06-04T07:07:49;8.18;;;3.55;;
51578;SDS011;47998;53.242;6.386;2023-06-04T07:10:15;7.82;;;1.92;;
51578;SDS011;47998;53.242;6.386;2023-06-04T07:12:41;8.52;;;2.25;;
51578;SDS011;47998;53.242;6.386;2023-06-04T07:15:07;7.20;;;2.20;;
51578;SDS011;47998;53.242;6.386;2023-06-04T07:17:34;5.63;;;2.15;;
51578;SDS011;47998;53.242;6.386;2023-06-04T07:20:00;6.03;;;2.03;;
51578;SDS011;47998;53.242;6.386;2023-06-04T07:22:26;4.57;;;1.50;;
51578;SDS011;47998;53.242;6.386;2023-06-04T07:24:52;6.03;;;1.75;;
51578;SDS011;47998;53.242;6.386;2023-06-04T07:27:18;4.55;;;2.00;;
51578;SDS011;47998;53.242;6.386;2023-06-04T07:29:44;5.72;;;1.67;;
51578;SDS011;47998;53.242;6.386;2023-06-04T07:32:10;5.10;;;2.10;;
51578;SDS011;47998;53.242;6.386;2023-06-04T07:34:37;4.57;;;1.45;;
51578;SDS011;47998;53.242;6.386;2023-06-04T07:37:04;5.85;;;1.63;;
51578;SDS011;47998;53.242;6.386;2023-06-04T07:39:29;3.40;;;1.42;;
51578;SDS011;47998;53.242;6.386;2023-06-04T07:41:55;7.00;;;2.08;;
51578;SDS011;47998;53.242;6.386;2023-06-04T07:44:21;4.03;;;1.23;;
51578;SDS011;47998;53.242;6.386;2023-06-04T07:46:47;3.63;;;1.42;;
51578;SDS011;47998;53.242;6.386;2023-06-04T07:49:13;4.47;;;1.35;;
51578;SDS011;47998;53.242;6.386;2023-06-04T07:51:39;4.63;;;1.63;;
51578;SDS011;47998;53.242;6.386;2023-06-04T07:54:04;5.28;;;2.08;;
51578;SDS011;47998;53.242;6.386;2023-06-04T07:56:30;5.88;;;1.27;;
51578;SDS011;47998;53.242;6.386;2023-06-04T07:58:56;6.47;;;1.42;;
51578;SDS011;47998;53.242;6.386;2023-06-04T08:01:22;4.03;;;1.25;;
51578;SDS011;47998;53.242;6.386;2023-06-04T08:03:49;5.63;;;1.60;;
51578;SDS011;47998;53.242;6.386;2023-06-04T08:06:15;5.88;;;1.60;;
51578;SDS011;47998;53.242;6.386;2023-06-04T08:08:44;5.30;;;1.70;;
51578;SDS011;47998;53.242;6.386;2023-06-04T08:11:14;3.65;;;1.38;;
51578;SDS011;47998;53.242;6.386;2023-06-04T08:13:40;4.60;;;1.58;;
51578;SDS011;47998;53.242;6.386;2023-06-04T08:16:06;6.47;;;2.05;;
51578;SDS011;47998;53.242;6.386;2023-06-04T08:18:38;5.65;;;1.52;;
51578;SDS011;47998;53.242;6.386;2023-06-04T08:21:05;4.53;;;1.40;;
51578;SDS011;47998;53.242;6.386;2023-06-04T08:23:31;3.70;;;1.40;;
51578;SDS011;47998;53.242;6.386;2023-06-04T08:25:57;5.93;;;1.60;;
51578;SDS011;47998;53.242;6.386;2023-06-04T08:28:24;4.45;;;1.50;;
51578;SDS011;47998;53.242;6.386;2023-06-04T08:30:50;4.68;;;1.45;;
51578;SDS011;47998;53.242;6.386;2023-06-04T08:33:15;3.85;;;1.40;;
51578;SDS011;47998;53.242;6.386;2023-06-04T08:35:41;4.43;;;1.48;;
51578;SDS011;47998;53.242;6.386;2023-06-04T08:38:07;4.72;;;1.33;;
51578;SDS011;47998;53.242;6.386;2023-06-04T08:40:33;6.40;;;1.67;;
51578;SDS011;47998;53.242;6.386;2023-06-04T08:43:02;4.30;;;1.70;;
51578;SDS011;47998;53.242;6.386;2023-06-04T08:45:28;3.60;;;1.52;;
51578;SDS011;47998;53.242;6.386;2023-06-04T08:48:03;5.30;;;1.50;;
51578;SDS011;47998;53.242;6.386;2023-06-04T08:50:32;7.93;;;1.90;;
51578;SDS011;47998;53.242;6.386;2023-06-04T08:52:58;3.97;;;1.20;;
51578;SDS011;47998;53.242;6.386;2023-06-04T08:55:24;4.07;;;1.20;;
51578;SDS011;47998;53.242;6.386;2023-06-04T08:57:51;3.92;;;1.48;;
51578;SDS011;47998;53.242;6.386;2023-06-04T09:00:17;3.92;;;1.40;;
51578;SDS011;47998;53.242;6.386;2023-06-04T09:02:43;4.47;;;1.42;;
51578;SDS011;47998;53.242;6.386;2023-06-04T09:05:10;5.47;;;1.30;;
51578;SDS011;47998;53.242;6.386;2023-06-04T09:07:44;4.35;;;1.25;;
51578;SDS011;47998;53.242;6.386;2023-06-04T09:10:11;3.90;;;0.93;;
51578;SDS011;47998;53.242;6.386;2023-06-04T09:12:42;3.10;;;1.30;;
51578;SDS011;47998;53.242;6.386;2023-06-04T09:15:11;2.75;;;1.10;;
51578;SDS011;47998;53.242;6.386;2023-06-04T09:17:37;4.32;;;1.40;;
51578;SDS011;47998;53.242;6.386;2023-06-04T09:20:03;5.00;;;0.80;;
51578;SDS011;47998;53.242;6.386;2023-06-04T09:22:36;4.70;;;1.00;;
51578;SDS011;47998;53.242;6.386;2023-06-04T09:25:06;3.92;;;1.38;;
51578;SDS011;47998;53.242;6.386;2023-06-04T09:27:43;3.88;;;0.93;;
51578;SDS011;47998;53.242;6.386;2023-06-04T09:30:09;2.50;;;1.33;;
51578;SDS011;47998;53.242;6.386;2023-06-04T09:32:35;4.65;;;1.10;;
51578;SDS011;47998;53.242;6.386;2023-06-04T09:35:10;3.67;;;1.35;;
51578;SDS011;47998;53.242;6.386;2023-06-04T09:37:38;3.95;;;1.52;;
51578;SDS011;47998;53.242;6.386;2023-06-04T09:40:05;3.38;;;1.20;;
51578;SDS011;47998;53.242;6.386;2023-06-04T09:42:44;4.05;;;1.30;;
51578;SDS011;47998;53.242;6.386;2023-06-04T09:45:11;4.88;;;1.50;;
51578;SDS011;47998;53.242;6.386;2023-06-04T09:47:41;4.68;;;1.08;;
51578;SDS011;47998;53.242;6.386;2023-06-04T09:50:07;3.63;;;1.10;;
51578;SDS011;47998;53.242;6.386;2023-06-04T09:52:34;4.65;;;1.13;;
51578;SDS011;47998;53.242;6.386;2023-06-04T09:55:00;3.63;;;1.58;;
51578;SDS011;47998;53.242;6.386;2023-06-04T09:57:26;3.65;;;1.48;;
51578;SDS011;47998;53.242;6.386;2023-06-04T09:59:54;3.30;;;1.15;;
51578;SDS011;47998;53.242;6.386;2023-06-04T10:02:22;2.47;;;1.48;;
51578;SDS011;47998;53.242;6.386;2023-06-04T10:04:57;3.25;;;1.08;;
51578;SDS011;47998;53.242;6.386;2023-06-04T10:07:25;4.43;;;1.75;;
51578;SDS011;47998;53.242;6.386;2023-06-04T10:09:51;4.97;;;1.02;;
51578;SDS011;47998;53.242;6.386;2023-06-04T10:12:21;2.05;;;1.05;;
51578;SDS011;47998;53.242;6.386;2023-06-04T10:14:52;1.98;;;1.05;;
51578;SDS011;47998;53.242;6.386;2023-06-04T10:17:22;4.53;;;1.15;;
51578;SDS011;47998;53.242;6.386;2023-06-04T10:19:50;2.65;;;1.00;;
51578;SDS011;47998;53.242;6.386;2023-06-04T10:22:17;2.05;;;1.17;;
51578;SDS011;47998;53.242;6.386;2023-06-04T10:24:43;5.50;;;1.13;;
51578;SDS011;47998;53.242;6.386;2023-06-04T10:27:10;5.25;;;1.35;;
51578;SDS011;47998;53.242;6.386;2023-06-04T10:29:38;3.05;;;1.02;;
51578;SDS011;47998;53.242;6.386;2023-06-04T10:32:04;4.05;;;0.82;;
51578;SDS011;47998;53.242;6.386;2023-06-04T10:34:31;2.67;;;1.00;;
51578;SDS011;47998;53.242;6.386;2023-06-04T10:36:57;4.15;;;1.30;;
51578;SDS011;47998;53.242;6.386;2023-06-04T10:39:30;6.30;;;1.30;;
51578;SDS011;47998;53.242;6.386;2023-06-04T10:41:59;4.95;;;0.88;;
51578;SDS011;47998;53.242;6.386;2023-06-04T10:44:32;3.50;;;1.17;;
51578;SDS011;47998;53.242;6.386;2023-06-04T10:49:49;3.45;;;1.38;;
51578;SDS011;47998;53.242;6.386;2023-06-04T10:52:16;2.92;;;1.42;;
51578;SDS011;47998;53.242;6.386;2023-06-04T10:54:42;5.53;;;1.95;;
51578;SDS011;47998;53.242;6.386;2023-06-04T10:57:13;3.08;;;1.30;;
51578;SDS011;47998;53.242;6.386;2023-06-04T10:59:40;4.70;;;1.23;;
51578;SDS011;47998;53.242;6.386;2023-06-04T11:02:07;3.53;;;1.45;;
51578;SDS011;47998;53.242;6.386;2023-06-04T11:04:33;2.22;;;0.90;;
51578;SDS011;47998;53.242;6.386;2023-06-04T11:07:01;4.57;;;1.52;;
51578;SDS011;47998;53.242;6.386;2023-06-04T11:09:28;4.18;;;1.67;;
51578;SDS011;47998;53.242;6.386;2023-06-04T11:12:00;3.47;;;1.60;;
51578;SDS011;47998;53.242;6.386;2023-06-04T11:14:26;7.18;;;1.17;;
51578;SDS011;47998;53.242;6.386;2023-06-04T11:16:52;3.65;;;1.50;;
51578;SDS011;47998;53.242;6.386;2023-06-04T11:19:18;3.88;;;1.15;;
51578;SDS011;47998;53.242;6.386;2023-06-04T11:21:44;3.38;;;1.30;;
51578;SDS011;47998;53.242;6.386;2023-06-04T11:24:11;4.20;;;1.30;;
51578;SDS011;47998;53.242;6.386;2023-06-04T11:26:37;4.97;;;1.50;;
51578;SDS011;47998;53.242;6.386;2023-06-04T11:29:07;4.65;;;1.90;;
51578;SDS011;47998;53.242;6.386;2023-06-04T11:31:43;4.15;;;1.30;;
51578;SDS011;47998;53.242;6.386;2023-06-04T11:34:10;2.65;;;1.27;;
51578;SDS011;47998;53.242;6.386;2023-06-04T11:36:46;5.25;;;1.20;;
51578;SDS011;47998;53.242;6.386;2023-06-04T11:39:14;2.85;;;1.17;;
51578;SDS011;47998;53.242;6.386;2023-06-04T11:41:40;3.85;;;1.40;;
51578;SDS011;47998;53.242;6.386;2023-06-04T11:44:07;4.30;;;1.48;;
51578;SDS011;47998;53.242;6.386;2023-06-04T11:46:34;2.50;;;0.98;;
51578;SDS011;47998;53.242;6.386;2023-06-04T11:49:01;3.80;;;1.30;;
51578;SDS011;47998;53.242;6.386;2023-06-04T11:51:27;3.90;;;1.40;;
51578;SDS011;47998;53.242;6.386;2023-06-04T11:53:54;5.07;;;1.30;;
51578;SDS011;47998;53.242;6.386;2023-06-04T11:56:20;3.22;;;1.05;;
51578;SDS011;47998;53.242;6.386;2023-06-04T11:58:48;3.75;;;1.40;;
51578;SDS011;47998;53.242;6.386;2023-06-04T12:01:14;4.95;;;1.25;;
51578;SDS011;47998;53.242;6.386;2023-06-04T12:03:41;1.58;;;0.75;;
51578;SDS011;47998;53.242;6.386;2023-06-04T12:06:17;3.80;;;1.15;;
51578;SDS011;47998;53.242;6.386;2023-06-04T12:11:30;2.92;;;1.23;;
51578;SDS011;47998;53.242;6.386;2023-06-04T12:14:04;3.63;;;1.27;;
51578;SDS011;47998;53.242;6.386;2023-06-04T12:16:31;2.63;;;1.00;;
51578;SDS011;47998;53.242;6.386;2023-06-04T12:21:35;3.30;;;1.27;;
51578;SDS011;47998;53.242;6.386;2023-06-04T12:26:35;1.75;;;0.98;;
51578;SDS011;47998;53.242;6.386;2023-06-04T12:29:12;3.65;;;1.60;;
51578;SDS011;47998;53.242;6.386;2023-06-04T12:31:45;5.00;;;1.40;;
51578;SDS011;47998;53.242;6.386;2023-06-04T12:34:14;4.15;;;1.50;;
51578;SDS011;47998;53.242;6.386;2023-06-04T12:36:42;3.75;;;1.30;;
51578;SDS011;47998;53.242;6.386;2023-06-04T12:39:08;4.68;;;1.25;;
51578;SDS011;47998;53.242;6.386;2023-06-04T12:41:34;3.00;;;0.98;;
51578;SDS011;47998;53.242;6.386;2023-06-04T12:44:01;1.77;;;1.00;;
51578;SDS011;47998;53.242;6.386;2023-06-04T12:46:27;3.25;;;1.40;;
51578;SDS011;47998;53.242;6.386;2023-06-04T12:48:53;3.92;;;1.10;;
51578;SDS011;47998;53.242;6.386;2023-06-04T12:51:20;3.17;;;1.15;;
51578;SDS011;47998;53.242;6.386;2023-06-04T12:53:46;4.60;;;1.02;;
51578;SDS011;47998;53.242;6.386;2023-06-04T12:56:12;3.47;;;1.23;;
51578;SDS011;47998;53.242;6.386;2023-06-04T12:58:39;2.60;;;1.08;;
51578;SDS011;47998;53.242;6.386;2023-06-04T13:01:05;2.50;;;1.35;;
51578;SDS011;47998;53.242;6.386;2023-06-04T13:03:31;3.28;;;1.10;;
51578;SDS011;47998;53.242;6.386;2023-06-04T13:05:57;3.45;;;1.30;;
51578;SDS011;47998;53.242;6.386;2023-06-04T13:08:23;4.53;;;1.50;;
51578;SDS011;47998;53.242;6.386;2023-06-04T13:10:52;3.67;;;1.30;;
51578;SDS011;47998;53.242;6.386;2023-06-04T13:13:18;5.53;;;1.63;;
51578;SDS011;47998;53.242;6.386;2023-06-04T13:15:45;3.35;;;1.25;;
51578;SDS011;47998;53.242;6.386;2023-06-04T13:18:11;6.03;;;1.17;;
51578;SDS011;47998;53.242;6.386;2023-06-04T13:20:37;4.03;;;1.40;;
51578;SDS011;47998;53.242;6.386;2023-06-04T13:23:05;5.18;;;1.35;;
51578;SDS011;47998;53.242;6.386;2023-06-04T13:25:31;4.05;;;1.20;;
51578;SDS011;47998;53.242;6.386;2023-06-04T13:28:03;4.03;;;1.17;;
51578;SDS011;47998;53.242;6.386;2023-06-04T13:30:29;3.20;;;0.98;;
51578;SDS011;47998;53.242;6.386;2023-06-04T13:32:55;4.40;;;1.20;;
51578;SDS011;47998;53.242;6.386;2023-06-04T13:35:23;4.00;;;1.02;;
51578;SDS011;47998;53.242;6.386;2023-06-04T13:37:49;5.53;;;1.65;;
51578;SDS011;47998;53.242;6.386;2023-06-04T13:40:15;2.92;;;1.08;;
51578;SDS011;47998;53.242;6.386;2023-06-04T13:42:41;3.45;;;1.00;;
51578;SDS011;47998;53.242;6.386;2023-06-04T13:45:09;4.30;;;1.10;;
51578;SDS011;47998;53.242;6.386;2023-06-04T13:47:35;3.40;;;1.15;;
51578;SDS011;47998;53.242;6.386;2023-06-04T13:50:01;2.95;;;0.98;;
51578;SDS011;47998;53.242;6.386;2023-06-04T13:52:28;4.53;;;1.20;;
51578;SDS011;47998;53.242;6.386;2023-06-04T13:54:54;3.45;;;1.10;;
51578;SDS011;47998;53.242;6.386;2023-06-04T13:57:21;3.95;;;1.27;;
51578;SDS011;47998;53.242;6.386;2023-06-04T13:59:48;3.05;;;0.90;;
51578;SDS011;47998;53.242;6.386;2023-06-04T14:02:14;3.35;;;0.95;;
51578;SDS011;47998;53.242;6.386;2023-06-04T14:04:40;3.55;;;1.27;;
51578;SDS011;47998;53.242;6.386;2023-06-04T14:07:06;2.70;;;0.95;;
51578;SDS011;47998;53.242;6.386;2023-06-04T14:09:32;4.43;;;1.20;;
51578;SDS011;47998;53.242;6.386;2023-06-04T14:11:58;2.88;;;0.73;;
51578;SDS011;47998;53.242;6.386;2023-06-04T14:14:24;4.05;;;1.00;;
51578;SDS011;47998;53.242;6.386;2023-06-04T14:16:49;3.28;;;0.95;;
51578;SDS011;47998;53.242;6.386;2023-06-04T14:19:15;2.85;;;1.15;;
51578;SDS011;47998;53.242;6.386;2023-06-04T14:21:41;2.40;;;0.70;;
51578;SDS011;47998;53.242;6.386;2023-06-04T14:24:08;5.53;;;1.20;;
51578;SDS011;47998;53.242;6.386;2023-06-04T14:26:35;3.13;;;1.00;;
51578;SDS011;47998;53.242;6.386;2023-06-04T14:29:01;4.15;;;1.35;;
51578;SDS011;47998;53.242;6.386;2023-06-04T14:31:27;2.55;;;1.08;;
51578;SDS011;47998;53.242;6.386;2023-06-04T14:33:53;5.82;;;1.17;;
51578;SDS011;47998;53.242;6.386;2023-06-04T14:36:19;4.82;;;1.20;;
51578;SDS011;47998;53.242;6.386;2023-06-04T14:38:45;2.80;;;1.27;;
51578;SDS011;47998;53.242;6.386;2023-06-04T14:41:12;3.78;;;1.20;;
51578;SDS011;47998;53.242;6.386;2023-06-04T14:43:39;2.45;;;1.20;;
51578;SDS011;47998;53.242;6.386;2023-06-04T14:46:05;4.32;;;1.33;;
51578;SDS011;47998;53.242;6.386;2023-06-04T14:48:31;3.53;;;1.27;;
51578;SDS011;47998;53.242;6.386;2023-06-04T14:50:56;4.93;;;1.30;;
51578;SDS011;47998;53.242;6.386;2023-06-04T14:53:24;3.80;;;1.15;;
51578;SDS011;47998;53.242;6.386;2023-06-04T14:55:50;6.80;;;2.08;;